Terminal Aerodrome Forecast
Issued by NWS Charleston, WV

Current Version | Previous Version | Text Only | Print | Product List | Glossary Off
Versions: 1 2 3 4 5 6 7 8 9 10 11 12 13 14 15 16 17 18 19 20 21 22 23 24 25 26 27

000
FTUS41 KRLX 290902 AAA
TAFHTS
TAF AMD
KHTS 290902Z 2909/3006 00000KT 5SM BR FEW050
     FM291300 00000KT 6SM HZ FEW040
     FM291500 00000KT P6SM SCT050
     FM300300 00000KT P6SM BKN060=

USA.gov is the U.S. government's official web portal to all federal, state and local government web resources and services.